Time;durP1;ratioP1;P1;durP2;ratioP2;P2;SDS_P1;SDS_P2;PMS_P1;PMS_P2;Temp;Humidity;BMP_temperature;BMP_pressure;BME280_temperature;BME280_humidity;BME280_pressure;Samples;Min_cycle;Max_cycle;Signal;HPM_P1;HPM_P2
2022/06/01 00:00:23;;;;;;;1.03;0.70;;;;;20.70;100225.00;;;;2069842;28;20214;-57
2022/06/01 00:01:23;;;;;;;1.33;1.03;;;;;20.70;100227.00;;;;2086010;28;20679;-57
2022/06/01 00:02:26;;;;;;;0.80;0.73;;;;;20.50;100220.00;;;;2086410;28;20631;-57
2022/06/01 00:03:29;;;;;;;0.80;0.77;;;;;20.70;100214.00;;;;2078688;28;20240;-57
2022/06/01 00:04:30;;;;;;;0.60;0.50;;;;;20.70;100220.00;;;;2077609;28;20264;-57
2022/06/01 00:05:30;;;;;;;0.93;0.60;;;;;20.70;100219.00;;;;2077029;28;20319;-57
2022/06/01 00:06:30;;;;;;;0.90;0.70;;;;;20.70;100232.00;;;;2079525;28;20810;-57
2022/06/01 00:07:31;;;;;;;0.80;0.60;;;;;20.70;100212.00;;;;2080119;28;20767;-57
2022/06/01 00:08:31;;;;;;;0.80;0.70;;;;;20.70;100223.00;;;;2080328;28;20697;-57
2022/06/01 00:09:32;;;;;;;0.80;0.70;;;;;20.70;100217.00;;;;2080112;28;20220;-57
2022/06/01 00:10:32;;;;;;;1.23;0.60;;;;;20.70;100209.00;;;;2080217;28;20712;-57
2022/06/01 00:11:32;;;;;;;0.80;0.70;;;;;20.70;100217.00;;;;2080054;28;20873;-57
2022/06/01 00:12:35;;;;;;;0.80;0.80;;;;;20.70;100216.00;;;;2080127;28;20219;-58
2022/06/01 00:13:35;;;;;;;0.95;0.70;;;;;20.70;100214.00;;;;2079891;28;20355;-58
2022/06/01 00:14:36;;;;;;;0.80;0.70;;;;;20.70;100215.00;;;;2079070;28;20217;-57
2022/06/01 00:15:36;;;;;;;0.70;0.53;;;;;20.70;100218.00;;;;2071493;28;20210;-57
2022/06/01 00:16:37;;;;;;;1.20;1.10;;;;;20.70;100214.00;;;;2072303;28;20253;-57
2022/06/01 00:17:37;;;;;;;0.80;0.60;;;;;20.70;100217.00;;;;2071708;28;21021;-57
2022/06/01 00:18:38;;;;;;;1.10;0.80;;;;;20.70;100217.00;;;;2071343;28;20210;-57
2022/06/01 00:19:38;;;;;;;0.80;0.50;;;;;20.70;100215.00;;;;2071062;28;20276;-57
2022/06/01 00:20:38;;;;;;;0.97;0.70;;;;;20.70;100223.00;;;;2072163;28;20225;-58
2022/06/01 00:22:11;;;;;;;0.70;0.60;;;;;20.70;100220.00;;;;2071232;28;20221;-57
2022/06/01 00:22:59;;;;;;;0.80;0.70;;;;;20.70;100216.00;;;;2070452;28;20244;-57
2022/06/01 00:23:59;;;;;;;1.07;0.57;;;;;20.70;100219.00;;;;2071217;28;20619;-57
2022/06/01 00:25:00;;;;;;;0.80;0.70;;;;;20.70;100216.00;;;;2063502;28;20715;-57
2022/06/01 00:26:00;;;;;;;1.00;0.90;;;;;20.70;100220.00;;;;2070486;28;20222;-57
2022/06/01 00:27:00;;;;;;;0.80;0.70;;;;;20.70;100213.00;;;;2071887;28;20217;-57
2022/06/01 00:28:01;;;;;;;0.70;0.60;;;;;20.70;100216.00;;;;2071795;28;20295;-57
2022/06/01 00:29:02;;;;;;;0.90;0.80;;;;;20.70;100227.00;;;;2071497;28;20228;-57
2022/06/01 00:30:07;;;;;;;0.80;0.60;;;;;20.70;100222.00;;;;2071455;28;20225;-57
2022/06/01 00:31:07;;;;;;;0.90;0.80;;;;;20.70;100215.00;;;;2071344;28;20210;-57
2022/06/01 00:32:08;;;;;;;1.00;0.80;;;;;20.70;100224.00;;;;2063197;28;20281;-57
2022/06/01 00:33:08;;;;;;;0.80;0.60;;;;;20.70;100216.00;;;;2071301;28;20217;-57
2022/06/01 00:34:09;;;;;;;1.00;0.70;;;;;20.70;100218.00;;;;2072064;28;20218;-57
2022/06/01 00:35:10;;;;;;;0.70;0.70;;;;;20.70;100221.00;;;;2072220;28;20225;-57
2022/06/01 00:36:10;;;;;;;0.88;0.75;;;;;20.70;100220.00;;;;2064849;28;20260;-57
2022/06/01 00:37:11;;;;;;;0.80;0.60;;;;;20.70;100218.00;;;;2076540;28;20705;-57
2022/06/01 00:38:11;;;;;;;0.90;0.70;;;;;20.70;100218.00;;;;2078526;28;20787;-57
2022/06/01 00:39:11;;;;;;;0.73;0.60;;;;;20.70;100226.00;;;;2077948;28;20931;-57
2022/06/01 00:40:14;;;;;;;1.17;0.77;;;;;20.70;100218.00;;;;2076706;28;20557;-57
2022/06/01 00:41:14;;;;;;;0.80;0.68;;;;;20.70;100227.00;;;;2066721;28;20218;-60
2022/06/01 00:42:16;;;;;;;1.13;0.70;;;;;20.70;100223.00;;;;2070171;28;20240;-60
2022/06/01 00:43:38;;;;;;;0.70;0.60;;;;;20.70;100220.00;;;;2078494;28;20213;-56
2022/06/01 00:44:38;;;;;;;1.13;0.75;;;;;20.70;100216.00;;;;2075185;28;20267;-57
2022/06/01 00:45:38;;;;;;;0.80;0.70;;;;;20.70;100221.00;;;;2068786;28;20217;-56
2022/06/01 00:46:39;;;;;;;1.30;0.80;;;;;20.70;100218.00;;;;2077498;28;20209;-57
2022/06/01 00:47:39;;;;;;;0.93;0.77;;;;;20.70;100216.00;;;;2077081;28;20761;-57
2022/06/01 00:48:43;;;;;;;1.80;0.70;;;;;20.70;100214.00;;;;2079472;28;20217;-57
2022/06/01 00:49:46;;;;;;;0.82;0.70;;;;;20.70;100221.00;;;;2077988;28;20214;-58
2022/06/01 00:50:46;;;;;;;0.90;0.70;;;;;20.70;100219.00;;;;2071659;28;20214;-58
2022/06/01 00:51:47;;;;;;;1.10;0.70;;;;;20.70;100205.00;;;;2070966;28;20253;-57
2022/06/01 00:52:59;;;;;;;0.80;0.73;;;;;20.70;100212.00;;;;2071015;28;20217;-57
2022/06/01 00:53:59;;;;;;;1.08;0.60;;;;;20.70;100212.00;;;;2071157;28;20206;-57
2022/06/01 00:55:00;;;;;;;0.70;0.60;;;;;20.70;100211.00;;;;2055175;28;20216;-57
2022/06/01 00:56:04;;;;;;;1.13;0.90;;;;;20.70;100200.00;;;;2070622;28;20206;-57
2022/06/01 00:57:08;;;;;;;0.85;0.80;;;;;20.70;100216.00;;;;2070792;28;20218;-56
2022/06/01 00:58:18;;;;;;;0.70;0.57;;;;;20.70;100221.00;;;;2071802;28;20222;-57
2022/06/01 00:59:21;;;;;;;1.17;0.85;;;;;20.70;100219.00;;;;2079017;28;20253;-58
2022/06/01 01:00:24;;;;;;;0.70;0.60;;;;;20.70;100212.00;;;;2071155;28;20280;-57
2022/06/01 01:01:24;;;;;;;0.70;0.60;;;;;20.70;100215.00;;;;2071235;28;20709;-57
2022/06/01 01:02:24;;;;;;;0.70;0.60;;;;;20.70;100225.00;;;;2063094;28;20219;-57
2022/06/01 01:03:26;;;;;;;1.00;0.80;;;;;20.70;100225.00;;;;2071042;28;20288;-57
2022/06/01 01:04:27;;;;;;;0.80;0.50;;;;;20.70;100226.00;;;;2071027;28;20620;-57
2022/06/01 01:05:27;;;;;;;1.00;0.70;;;;;20.70;100217.00;;;;2070097;28;20249;-57
2022/06/01 01:06:37;;;;;;;1.10;0.80;;;;;20.70;100226.00;;;;2079311;28;20280;-57
2022/06/01 01:07:37;;;;;;;0.82;0.75;;;;;20.70;100221.00;;;;2078735;28;20340;-56
2022/06/01 01:08:38;;;;;;;1.10;0.77;;;;;20.70;100217.00;;;;2079977;28;20832;-57
2022/06/01 01:09:39;;;;;;;1.05;0.77;;;;;20.70;100216.00;;;;2078526;28;20213;-56
2022/06/01 01:10:40;;;;;;;1.00;0.80;;;;;20.70;100214.00;;;;2079085;28;20222;-56
2022/06/01 01:11:53;;;;;;;1.10;0.90;;;;;20.70;100208.00;;;;2079105;28;20241;-56
2022/06/01 01:12:58;;;;;;;1.20;0.90;;;;;20.70;100218.00;;;;2064301;28;20527;-57
2022/06/01 01:13:59;;;;;;;1.10;1.00;;;;;20.70;100224.00;;;;2063737;28;20222;-57
2022/06/01 01:14:59;;;;;;;1.00;0.70;;;;;20.70;100216.00;;;;2062850;28;20262;-57
2022/06/01 01:15:59;;;;;;;1.00;0.90;;;;;20.70;100213.00;;;;2062122;28;20234;-57
2022/06/01 01:17:00;;;;;;;0.80;0.70;;;;;20.70;100218.00;;;;2061597;28;20225;-57
2022/06/01 01:18:00;;;;;;;1.00;0.60;;;;;20.60;100211.00;;;;2054228;28;20219;-57
2022/06/01 01:19:01;;;;;;;1.50;1.00;;;;;20.70;100215.00;;;;2062661;28;20215;-57
2022/06/01 01:20:02;;;;;;;1.20;0.80;;;;;20.70;100218.00;;;;2052731;28;20474;-57
2022/06/01 01:21:17;;;;;;;1.00;0.70;;;;;20.60;100210.00;;;;2053963;28;20223;-57
2022/06/01 01:23:00;;;;;;;1.08;0.90;;;;;20.70;100212.00;;;;2055826;28;20250;-58
2022/06/01 01:24:15;;;;;;;0.75;0.70;;;;;20.70;100217.00;;;;2055095;28;20219;-57
2022/06/01 01:25:18;;;;;;;1.00;0.90;;;;;20.70;100222.00;;;;2062104;28;20215;-57
2022/06/01 01:26:19;;;;;;;0.90;0.80;;;;;20.60;100211.00;;;;2054838;28;20243;-57
2022/06/01 01:27:19;;;;;;;0.90;0.70;;;;;20.60;100218.00;;;;2061695;28;20223;-57
2022/06/01 01:28:19;;;;;;;0.93;0.90;;;;;20.60;100223.00;;;;2062079;28;20869;-57
2022/06/01 01:29:34;;;;;;;1.20;0.90;;;;;20.60;100216.00;;;;2067011;28;20218;-57
2022/06/01 01:30:37;;;;;;;2.38;1.00;;;;;20.60;100219.00;;;;2070320;28;20229;-57
2022/06/01 01:31:39;;;;;;;0.80;0.80;;;;;20.60;100212.00;;;;2070984;28;20278;-57
2022/06/01 01:32:39;;;;;;;1.00;0.80;;;;;20.60;100205.00;;;;2071718;28;20301;-57
2022/06/01 01:33:39;;;;;;;1.50;1.20;;;;;20.60;100210.00;;;;2071432;28;20211;-57
2022/06/01 01:34:40;;;;;;;1.57;0.80;;;;;20.60;100209.00;;;;2071423;28;20249;-57
2022/06/01 01:35:41;;;;;;;1.00;0.90;;;;;20.60;100207.00;;;;2075232;28;20213;-57
2022/06/01 01:36:46;;;;;;;0.95;0.85;;;;;20.60;100212.00;;;;2079111;28;20209;-57
2022/06/01 01:37:47;;;;;;;0.70;0.60;;;;;20.60;100201.00;;;;2079335;28;20232;-57
2022/06/01 01:39:09;;;;;;;0.80;0.80;;;;;20.60;100206.00;;;;2070815;28;20214;-58
2022/06/01 01:40:10;;;;;;;1.33;0.95;;;;;20.60;100205.00;;;;2073179;28;20216;-57
2022/06/01 01:41:13;;;;;;;1.10;0.80;;;;;20.60;100204.00;;;;2078962;28;20255;-57
2022/06/01 01:42:14;;;;;;;1.60;0.90;;;;;20.60;100198.00;;;;2071635;28;20480;-57
2022/06/01 01:43:15;;;;;;;1.50;1.00;;;;;20.60;100197.00;;;;2070876;28;20347;-57
2022/06/01 01:44:25;;;;;;;0.90;0.73;;;;;20.60;100199.00;;;;2071378;28;20753;-57
2022/06/01 01:45:31;;;;;;;1.00;0.80;;;;;20.60;100204.00;;;;2069549;28;20851;-57
2022/06/01 01:46:31;;;;;;;0.82;0.80;;;;;20.60;100204.00;;;;2063262;28;20246;-57
2022/06/01 01:47:36;;;;;;;1.00;0.90;;;;;20.60;100209.00;;;;2062720;28;20219;-57
2022/06/01 01:48:37;;;;;;;0.90;0.70;;;;;20.60;100201.00;;;;2062310;28;20230;-57
2022/06/01 01:49:38;;;;;;;1.13;0.90;;;;;20.60;100198.00;;;;2059977;28;20687;-57
2022/06/01 01:50:38;;;;;;;1.20;0.90;;;;;20.60;100208.00;;;;2062579;28;20219;-57
2022/06/01 01:51:39;;;;;;;1.03;0.90;;;;;20.60;100201.00;;;;2069774;28;20253;-57
2022/06/01 01:52:39;;;;;;;0.90;0.70;;;;;20.60;100208.00;;;;2071540;28;20249;-57
2022/06/01 01:53:39;;;;;;;1.00;0.90;;;;;20.60;100201.00;;;;2071553;28;20249;-57
2022/06/01 01:54:48;;;;;;;1.20;0.80;;;;;20.60;100214.00;;;;2070653;28;20210;-57
2022/06/01 01:55:51;;;;;;;1.95;0.95;;;;;20.60;100212.00;;;;2077846;28;20218;-57
2022/06/01 01:57:18;;;;;;;0.70;0.70;;;;;20.60;100209.00;;;;2078456;28;20220;-57
2022/06/01 01:58:37;;;;;;;0.73;0.65;;;;;20.60;100211.00;;;;2078594;28;20674;-57
2022/06/01 01:59:51;;;;;;;0.90;0.80;;;;;20.60;100211.00;;;;2076164;28;20209;-57
2022/06/01 02:00:55;;;;;;;0.90;0.73;;;;;20.60;100210.00;;;;2071079;28;20244;-57
2022/06/01 02:02:00;;;;;;;0.98;0.88;;;;;20.60;100206.00;;;;2070675;28;20218;-56
2022/06/01 02:03:06;;;;;;;1.50;1.05;;;;;20.60;100204.00;;;;2070193;28;20210;-57
2022/06/01 02:06:04;;;;;;;0.90;0.70;;;;;20.60;100211.00;;;;2070194;28;20341;-57
2022/06/01 02:07:04;;;;;;;1.55;0.93;;;;;20.60;100201.00;;;;2075491;28;20213;-57
2022/06/01 02:08:49;;;;;;;1.20;0.70;;;;;20.60;100202.00;;;;2072365;28;20229;-57
2022/06/01 02:12:43;;;;;;;1.00;0.88;;;;;20.60;100202.00;;;;2070680;28;20430;-58
2022/06/01 02:13:44;;;;;;;1.23;1.00;;;;;20.60;100197.00;;;;2070128;28;20304;-57
2022/06/01 02:14:52;;;;;;;1.27;1.10;;;;;20.60;100200.00;;;;2069862;28;20594;-57
2022/06/01 02:15:53;;;;;;;1.50;0.80;;;;;20.60;100201.00;;;;2069093;28;20237;-57
2022/06/01 02:17:01;;;;;;;1.87;1.00;;;;;20.60;100198.00;;;;2061584;28;20215;-58
2022/06/01 02:18:05;;;;;;;1.33;1.15;;;;;20.60;100200.00;;;;2069628;28;20297;-57
2022/06/01 02:19:08;;;;;;;1.20;1.05;;;;;20.60;100197.00;;;;2069626;28;20214;-57
2022/06/01 02:20:13;;;;;;;1.20;1.10;;;;;20.60;100205.00;;;;2062180;28;20245;-57
2022/06/01 02:21:21;;;;;;;1.30;1.20;;;;;20.60;100199.00;;;;2062338;28;20214;-57
2022/06/01 02:22:21;;;;;;;0.93;0.82;;;;;20.60;100209.00;;;;2062669;28;20222;-57
2022/06/01 02:23:22;;;;;;;1.50;0.97;;;;;20.60;100193.00;;;;2061177;28;20687;-57
2022/06/01 02:24:22;;;;;;;1.00;0.80;;;;;20.60;100200.00;;;;2053886;28;20220;-57
2022/06/01 02:25:23;;;;;;;1.13;1.03;;;;;20.60;100199.00;;;;2053097;28;20226;-57
2022/06/01 02:26:23;;;;;;;1.13;0.93;;;;;20.60;100202.00;;;;2061853;28;20334;-57
2022/06/01 02:27:24;;;;;;;1.57;1.17;;;;;20.60;100208.00;;;;2061358;28;20341;-57
2022/06/01 02:28:24;;;;;;;1.20;1.10;;;;;20.60;100210.00;;;;2061454;28;20937;-57
2022/06/01 02:29:34;;;;;;;1.53;1.03;;;;;20.60;100205.00;;;;2061170;28;20581;-57
2022/06/01 02:30:39;;;;;;;1.15;1.05;;;;;20.60;100143.00;;;;2059172;28;20528;-57
2022/06/01 02:31:40;;;;;;;0.90;0.80;;;;;20.60;100196.00;;;;2062387;28;20250;-58
2022/06/01 02:32:40;;;;;;;1.30;1.00;;;;;20.60;100207.00;;;;2061958;28;20210;-57
2022/06/01 02:33:40;;;;;;;1.20;1.07;;;;;20.60;100197.00;;;;2053759;28;20263;-58
2022/06/01 02:34:41;;;;;;;1.27;0.90;;;;;20.60;100190.00;;;;2053947;28;20269;-57
2022/06/01 02:35:44;;;;;;;1.10;0.90;;;;;20.60;100189.00;;;;2061436;28;20215;-57
2022/06/01 02:36:44;;;;;;;1.10;0.90;;;;;20.60;100206.00;;;;2062261;28;20868;-57
2022/06/01 02:37:46;;;;;;;1.10;1.00;;;;;20.60;100210.00;;;;2062038;28;20254;-57
2022/06/01 02:38:48;;;;;;;1.42;1.10;;;;;20.60;100199.00;;;;2059818;28;20777;-57
2022/06/01 02:39:52;;;;;;;1.20;0.95;;;;;20.60;100205.00;;;;2054814;28;20298;-57
2022/06/01 02:40:52;;;;;;;1.38;1.25;;;;;20.60;100200.00;;;;2061940;28;20226;-57
2022/06/01 02:42:26;;;;;;;1.10;1.00;;;;;20.60;100206.00;;;;2067715;28;20264;-57
2022/06/01 02:43:26;;;;;;;1.17;1.00;;;;;20.60;100207.00;;;;2068878;28;20673;-57
2022/06/01 02:44:27;;;;;;;1.73;1.13;;;;;20.60;100206.00;;;;2070213;28;20304;-57
2022/06/01 02:45:27;;;;;;;1.00;0.90;;;;;20.60;100208.00;;;;2069692;28;20337;-57
2022/06/01 02:46:28;;;;;;;1.10;0.90;;;;;20.60;100218.00;;;;2070959;28;20226;-57
2022/06/01 02:47:30;;;;;;;1.10;1.00;;;;;20.60;100215.00;;;;2069495;28;20218;-57
2022/06/01 02:48:31;;;;;;;1.52;1.00;;;;;20.60;100220.00;;;;2069988;28;20226;-57
2022/06/01 02:49:31;;;;;;;1.20;1.10;;;;;20.60;100220.00;;;;2070472;28;20269;-57
2022/06/01 02:50:32;;;;;;;1.10;0.90;;;;;20.60;100218.00;;;;2069810;28;20740;-57
2022/06/01 02:51:33;;;;;;;1.45;1.35;;;;;20.60;100217.00;;;;2069475;28;20222;-57
2022/06/01 02:52:33;;;;;;;1.07;0.97;;;;;20.60;100214.00;;;;2070198;28;20663;-57
2022/06/01 02:53:35;;;;;;;0.87;0.80;;;;;20.60;100203.00;;;;2070300;28;20646;-57
2022/06/01 02:54:35;;;;;;;1.00;0.90;;;;;20.60;100221.00;;;;2062074;28;20207;-57
2022/06/01 02:55:36;;;;;;;1.60;1.13;;;;;20.60;100230.00;;;;2069206;28;20305;-57
2022/06/01 02:56:36;;;;;;;1.30;1.17;;;;;20.60;100222.00;;;;2070325;28;20233;-57
2022/06/01 02:57:37;;;;;;;1.07;0.97;;;;;20.60;100213.00;;;;2069653;28;20229;-57
2022/06/01 02:58:38;;;;;;;1.33;1.20;;;;;20.60;100227.00;;;;2068864;28;20257;-59
2022/06/01 02:59:38;;;;;;;2.83;1.67;;;;;20.60;100219.00;;;;2061569;28;20243;-57
2022/06/01 03:00:40;;;;;;;1.30;1.20;;;;;20.60;100225.00;;;;2069198;28;20682;-57
2022/06/01 03:01:43;;;;;;;1.45;0.80;;;;;20.60;100221.00;;;;2070511;28;20360;-57
2022/06/01 03:02:47;;;;;;;1.30;1.00;;;;;20.60;100231.00;;;;2070200;28;20672;-58
2022/06/01 03:03:48;;;;;;;1.38;0.98;;;;;20.60;100225.00;;;;2070400;28;20288;-57
2022/06/01 03:04:48;;;;;;;1.20;1.10;;;;;20.60;100222.00;;;;2070776;28;20614;-58
2022/06/01 03:05:48;;;;;;;1.23;1.13;;;;;20.60;100224.00;;;;2070276;28;20577;-57
2022/06/01 03:06:49;;;;;;;0.90;0.80;;;;;20.60;100229.00;;;;2069843;28;20582;-57
2022/06/01 03:07:50;;;;;;;0.97;0.80;;;;;20.60;100216.00;;;;2069917;28;20202;-57
2022/06/01 03:08:50;;;;;;;1.00;0.90;;;;;20.60;100232.00;;;;2070227;28;20951;-57
2022/06/01 03:09:50;;;;;;;1.27;1.00;;;;;20.60;100232.00;;;;2070809;28;20207;-57
2022/06/01 03:10:51;;;;;;;1.60;1.20;;;;;20.60;100203.00;;;;2070952;28;20250;-57
2022/06/01 03:11:52;;;;;;;1.40;1.30;;;;;20.60;100224.00;;;;2070208;28;20586;-57
2022/06/01 03:12:52;;;;;;;1.00;0.90;;;;;20.60;100230.00;;;;2070239;28;20221;-56
2022/06/01 03:13:53;;;;;;;1.10;1.00;;;;;20.60;100222.00;;;;2070813;28;20218;-58
2022/06/01 03:14:53;;;;;;;1.03;0.90;;;;;20.60;100228.00;;;;2069517;28;20648;-57
2022/06/01 03:15:54;;;;;;;1.10;1.00;;;;;20.60;100228.00;;;;2070099;28;20715;-57
2022/06/01 03:16:55;;;;;;;1.33;1.13;;;;;20.60;100226.00;;;;2069987;28;20225;-57
2022/06/01 03:17:55;;;;;;;1.25;1.05;;;;;20.60;100228.00;;;;2069962;28;20214;-57
2022/06/01 03:18:56;;;;;;;1.23;0.93;;;;;20.60;100228.00;;;;2070825;28;20660;-61
2022/06/01 03:19:56;;;;;;;1.40;1.30;;;;;20.60;100234.00;;;;2070767;28;20221;-58
2022/06/01 03:20:58;;;;;;;1.20;1.10;;;;;20.60;100235.00;;;;2070503;28;20206;-57
2022/06/01 03:21:58;;;;;;;1.60;1.30;;;;;20.60;100227.00;;;;2070839;28;20214;-57
2022/06/01 03:22:58;;;;;;;1.17;1.07;;;;;20.60;100228.00;;;;2070868;28;20214;-57
2022/06/01 03:24:01;;;;;;;1.10;1.00;;;;;20.60;100227.00;;;;2070711;28;20240;-57
2022/06/01 03:25:03;;;;;;;1.10;1.00;;;;;20.60;100234.00;;;;2069940;28;20218;-57
2022/06/01 03:26:03;;;;;;;1.70;1.42;;;;;20.60;100233.00;;;;2061255;28;20222;-57
2022/06/01 03:27:03;;;;;;;1.00;0.90;;;;;20.60;100233.00;;;;2069864;28;20214;-57
2022/06/01 03:28:05;;;;;;;1.17;1.07;;;;;20.60;100229.00;;;;2070048;28;20222;-57
2022/06/01 03:29:05;;;;;;;1.58;1.08;;;;;20.60;100223.00;;;;2061519;28;20831;-57
2022/06/01 03:30:08;;;;;;;1.60;1.20;;;;;20.60;100232.00;;;;2070177;28;20293;-57
2022/06/01 03:31:08;;;;;;;1.42;1.33;;;;;20.60;100232.00;;;;2069861;28;20741;-57
2022/06/01 03:32:08;;;;;;;1.30;1.20;;;;;20.60;100219.00;;;;2069875;28;20248;-57
2022/06/01 03:33:10;;;;;;;1.17;1.07;;;;;20.60;100225.00;;;;2070725;28;20225;-57
2022/06/01 03:34:10;;;;;;;1.25;1.05;;;;;20.60;100218.00;;;;2070397;28;20582;-57
2022/06/01 03:35:11;;;;;;;1.53;1.20;;;;;20.60;100219.00;;;;2070739;28;20218;-57
2022/06/01 03:36:12;;;;;;;1.10;1.00;;;;;20.60;100218.00;;;;2061081;28;20699;-57
2022/06/01 03:37:12;;;;;;;1.10;1.00;;;;;20.60;100217.00;;;;2061517;28;20219;-57
2022/06/01 03:38:12;;;;;;;1.30;1.10;;;;;20.60;100220.00;;;;2070661;28;20210;-58
2022/06/01 03:39:13;;;;;;;1.40;1.30;;;;;20.60;100224.00;;;;2069644;28;20236;-57
2022/06/01 03:40:14;;;;;;;2.30;1.23;;;;;20.60;100224.00;;;;2068586;28;22066;-57
2022/06/01 03:41:14;;;;;;;1.97;1.00;;;;;20.60;100238.00;;;;2068904;28;20218;-57
2022/06/01 03:42:14;;;;;;;0.97;0.90;;;;;20.60;100223.00;;;;2069000;28;20535;-57
2022/06/01 03:43:15;;;;;;;1.50;1.20;;;;;20.60;100229.00;;;;2069295;28;20248;-58
2022/06/01 03:47:00;;;;;;;1.10;1.00;;;;;20.60;100239.00;;;;2068798;28;20214;-57
2022/06/01 03:48:00;;;;;;;2.45;1.20;;;;;20.50;100238.00;;;;2069890;28;20845;-58
2022/06/01 03:49:01;;;;;;;1.20;1.00;;;;;20.60;100243.00;;;;2069894;28;20218;-54
2022/06/01 03:50:01;;;;;;;1.40;1.10;;;;;20.60;100249.00;;;;2070488;28;20701;-57
2022/06/01 03:51:01;;;;;;;1.43;1.20;;;;;20.60;100241.00;;;;2069397;28;20218;-58
2022/06/01 03:52:02;;;;;;;1.80;1.10;;;;;20.60;100251.00;;;;2069902;28;20213;-58
2022/06/01 03:53:02;;;;;;;1.20;1.03;;;;;20.60;100249.00;;;;2061989;28;20225;-58
2022/06/01 03:54:03;;;;;;;1.30;1.20;;;;;20.60;100244.00;;;;2062122;28;20269;-58
2022/06/01 03:55:05;;;;;;;1.20;1.07;;;;;20.60;100236.00;;;;2053716;28;20215;-55
2022/06/01 03:56:07;;;;;;;1.58;1.48;;;;;20.60;100246.00;;;;2053405;28;20270;-56
2022/06/01 03:57:07;;;;;;;1.58;1.23;;;;;20.60;100248.00;;;;2069873;28;20217;-55
2022/06/01 03:58:14;;;;;;;1.13;1.03;;;;;20.60;100244.00;;;;2070368;28;20234;-57
2022/06/01 03:59:15;;;;;;;1.45;1.20;;;;;20.60;100247.00;;;;2068970;28;20221;-57
2022/06/01 04:00:18;;;;;;;1.60;1.37;;;;;20.60;100247.00;;;;2070545;28;20234;-55
2022/06/01 04:01:18;;;;;;;1.50;1.40;;;;;20.60;100250.00;;;;2064120;28;20700;-59
2022/06/01 04:02:18;;;;;;;1.70;1.20;;;;;20.60;100256.00;;;;2069365;28;20320;-58
2022/06/01 04:03:19;;;;;;;1.60;1.10;;;;;20.60;100247.00;;;;2070668;28;20599;-58
2022/06/01 04:04:19;;;;;;;1.60;1.20;;;;;20.60;100254.00;;;;2070519;28;20219;-60
2022/06/01 04:05:20;;;;;;;1.10;1.00;;;;;20.60;100253.00;;;;2070123;28;20218;-56
2022/06/01 04:06:20;;;;;;;1.53;1.40;;;;;20.60;100258.00;;;;2070405;28;20217;-58
2022/06/01 04:07:21;;;;;;;1.30;1.20;;;;;20.60;100250.00;;;;2070398;28;20466;-58
2022/06/01 04:08:21;;;;;;;1.10;1.00;;;;;20.60;100250.00;;;;2070324;28;20244;-58
2022/06/01 04:09:21;;;;;;;1.30;1.20;;;;;20.60;100250.00;;;;2070312;28;20218;-56
2022/06/01 04:10:22;;;;;;;1.23;1.00;;;;;20.60;100261.00;;;;2069504;28;20257;-56
2022/06/01 04:11:22;;;;;;;1.40;1.30;;;;;20.60;100260.00;;;;2061895;28;20290;-58
2022/06/01 04:12:22;;;;;;;1.30;1.20;;;;;20.60;100249.00;;;;2069246;28;20317;-58
2022/06/01 04:13:24;;;;;;;1.50;1.20;;;;;20.60;100260.00;;;;2077527;28;20695;-60
2022/06/01 04:14:24;;;;;;;1.20;1.00;;;;;20.60;100250.00;;;;2067487;28;20225;-57
2022/06/01 04:15:25;;;;;;;1.27;1.10;;;;;20.60;100260.00;;;;2060164;28;20218;-56
2022/06/01 04:16:25;;;;;;;1.97;1.20;;;;;20.60;100265.00;;;;2061516;28;20495;-56
2022/06/01 04:17:25;;;;;;;1.40;0.97;;;;;20.60;100254.00;;;;2060574;28;20616;-57
2022/06/01 04:18:26;;;;;;;1.37;1.10;;;;;20.60;100265.00;;;;2069057;28;20218;-58
2022/06/01 04:19:26;;;;;;;1.57;1.20;;;;;20.60;100248.00;;;;2068625;28;20229;-55
2022/06/01 04:20:26;;;;;;;1.10;1.00;;;;;20.60;100242.00;;;;2069747;28;20242;-56
2022/06/01 04:21:27;;;;;;;1.80;1.27;;;;;20.60;100263.00;;;;2069570;28;20283;-58
2022/06/01 04:22:27;;;;;;;1.40;1.00;;;;;20.60;100263.00;;;;2059482;28;20215;-57
2022/06/01 04:23:28;;;;;;;1.50;1.30;;;;;20.60;100268.00;;;;2061401;28;20234;-58
2022/06/01 04:24:29;;;;;;;1.50;1.40;;;;;20.60;100254.00;;;;2061040;28;20242;-59
2022/06/01 04:25:30;;;;;;;1.20;1.10;;;;;20.60;100259.00;;;;2060520;28;20249;-59
2022/06/01 04:26:30;;;;;;;1.20;1.10;;;;;20.60;100264.00;;;;2061336;28;20219;-58
2022/06/01 04:27:31;;;;;;;2.03;1.37;;;;;20.60;100271.00;;;;2076421;28;20214;-56
2022/06/01 04:28:31;;;;;;;1.37;1.27;;;;;20.60;100268.00;;;;2069357;28;20222;-57
2022/06/01 04:29:31;;;;;;;1.40;1.30;;;;;20.60;100264.00;;;;2069560;28;20226;-57
2022/06/01 04:30:32;;;;;;;1.30;1.17;;;;;20.60;100267.00;;;;2075822;28;20229;-60
2022/06/01 04:31:32;;;;;;;1.30;1.20;;;;;20.60;100261.00;;;;2077905;28;20285;-58
2022/06/01 04:32:32;;;;;;;1.33;1.03;;;;;20.60;100261.00;;;;2068424;28;20218;-58
2022/06/01 04:33:33;;;;;;;1.50;1.23;;;;;20.60;100263.00;;;;2068986;28;20233;-57
2022/06/01 04:34:33;;;;;;;1.63;1.30;;;;;20.60;100265.00;;;;2077848;28;20296;-58
2022/06/01 04:35:34;;;;;;;1.60;1.10;;;;;20.60;100259.00;;;;2061734;28;20322;-56
2022/06/01 04:36:34;;;;;;;1.33;1.07;;;;;20.60;100260.00;;;;2069734;28;20206;-56
2022/06/01 04:37:34;;;;;;;1.30;1.17;;;;;20.60;100262.00;;;;2070274;28;20880;-56
2022/06/01 04:38:35;;;;;;;1.30;1.20;;;;;20.60;100250.00;;;;2069840;28;21068;-56
2022/06/01 04:39:35;;;;;;;1.47;1.13;;;;;20.60;100270.00;;;;2061526;28;20873;-57
2022/06/01 04:40:35;;;;;;;1.40;1.30;;;;;20.60;100264.00;;;;2061365;28;20294;-57
2022/06/01 04:41:36;;;;;;;0.93;0.83;;;;;20.60;100265.00;;;;2069653;28;20206;-57
2022/06/01 04:42:36;;;;;;;1.37;1.27;;;;;20.60;100261.00;;;;2070243;28;20265;-57
2022/06/01 04:43:36;;;;;;;1.20;1.10;;;;;20.60;100259.00;;;;2070443;28;20265;-54
2022/06/01 04:44:37;;;;;;;2.13;1.20;;;;;20.60;100262.00;;;;2069718;28;20704;-55
2022/06/01 04:45:37;;;;;;;1.10;1.00;;;;;20.60;100257.00;;;;2068727;28;20643;-57
2022/06/01 04:46:37;;;;;;;1.33;1.10;;;;;20.60;100265.00;;;;2069361;28;20211;-55
2022/06/01 04:47:38;;;;;;;1.07;0.97;;;;;20.60;100232.00;;;;2072672;28;20280;-56
2022/06/01 04:48:38;;;;;;;1.27;1.00;;;;;20.60;100264.00;;;;2060677;28;20306;-57
2022/06/01 04:49:39;;;;;;;1.30;1.20;;;;;20.60;100263.00;;;;2060949;28;20218;-57
2022/06/01 04:50:42;;;;;;;1.20;1.00;;;;;20.60;100267.00;;;;2070492;28;20214;-59
2022/06/01 04:51:42;;;;;;;1.45;1.30;;;;;20.60;100264.00;;;;2068829;28;20218;-57
2022/06/01 04:52:42;;;;;;;1.20;1.10;;;;;20.60;100261.00;;;;2069196;28;20516;-57
2022/06/01 04:53:43;;;;;;;1.63;1.20;;;;;20.60;100266.00;;;;2078765;28;20238;-57
2022/06/01 04:54:43;;;;;;;1.83;1.50;;;;;20.60;100270.00;;;;2079752;28;20218;-58
2022/06/01 04:55:44;;;;;;;1.30;1.20;;;;;20.60;100270.00;;;;2078556;28;20704;-57
2022/06/01 04:56:45;;;;;;;1.30;1.20;;;;;20.60;100254.00;;;;2078806;28;20213;-57
2022/06/01 04:57:45;;;;;;;1.40;1.10;;;;;20.60;100260.00;;;;2077464;28;20747;-57
2022/06/01 04:58:45;;;;;;;1.40;1.30;;;;;20.60;100264.00;;;;2070760;28;20215;-56
2022/06/01 04:59:46;;;;;;;1.83;1.20;;;;;20.60;100264.00;;;;2069941;28;20222;-58
2022/06/01 05:00:46;;;;;;;1.40;1.13;;;;;20.60;100257.00;;;;2070832;28;20219;-57
2022/06/01 05:01:46;;;;;;;1.17;1.07;;;;;20.60;100263.00;;;;2070877;28;20233;-57
2022/06/01 05:02:47;;;;;;;1.30;1.00;;;;;20.60;100259.00;;;;2070619;28;21170;-57
2022/06/01 05:03:47;;;;;;;1.50;1.37;;;;;20.60;100264.00;;;;2070630;28;20222;-57
2022/06/01 05:04:47;;;;;;;1.30;1.20;;;;;20.60;100262.00;;;;2074940;28;20295;-57
2022/06/01 05:05:48;;;;;;;1.77;1.30;;;;;20.60;100269.00;;;;2071820;28;20288;-56
2022/06/01 05:06:48;;;;;;;1.37;1.27;;;;;20.60;100269.00;;;;2073573;28;20241;-57
2022/06/01 05:07:48;;;;;;;1.23;1.10;;;;;20.60;100265.00;;;;2079818;28;20225;-57
2022/06/01 05:08:49;;;;;;;1.60;1.37;;;;;20.60;100260.00;;;;2077267;28;20249;-61
2022/06/01 05:09:49;;;;;;;1.60;1.20;;;;;20.60;100266.00;;;;2072373;28;20214;-57
2022/06/01 05:10:49;;;;;;;1.50;1.30;;;;;20.60;100260.00;;;;2072452;28;20272;-57
2022/06/01 05:11:50;;;;;;;1.43;1.30;;;;;20.60;100255.00;;;;2071802;28;20237;-57
2022/06/01 05:12:50;;;;;;;1.57;1.20;;;;;20.60;100262.00;;;;2063303;28;20314;-56
2022/06/01 05:13:51;;;;;;;1.27;1.17;;;;;20.60;100261.00;;;;2071827;28;20300;-56
2022/06/01 05:14:51;;;;;;;1.63;1.10;;;;;20.60;100210.00;;;;2072576;28;20626;-56